Time;durP1;ratioP1;P1;durP2;ratioP2;P2;SDS_P1;SDS_P2;PMS_P1;PMS_P2;Temp;Humidity;BMP_temperature;BMP_pressure;BME280_temperature;BME280_humidity;BME280_pressure;Samples;Min_cycle;Max_cycle;Signal;HPM_P1;HPM_P2
2022/02/21 00:01:34;;;;;;;;;;;;;;;;;;5023107;28;88183;-47
2022/02/21 00:04:00;;;;;;;;;;;;;;;;;;5023264;28;89351;-47
2022/02/21 00:06:26;;;;;;;;;;;;;;;;;;5023601;28;87068;-47
2022/02/21 00:08:52;;;;;;;;;;;;;;;;;;5023058;28;88374;-46
2022/02/21 00:11:18;;;;;;;;;;;;;;;;;;5026058;28;89534;-47
2022/02/21 00:13:44;;;;;;;;;;;;;;;;;;5023604;28;88439;-48
2022/02/21 00:16:10;;;;;;;;;;;;;;;;;;5022661;28;90340;-47
2022/02/21 00:18:36;;;;;;;;;;;;;;;;;;5023555;28;87353;-48
2022/02/21 00:21:02;;;;;;;;;;;;;;;;;;5023549;28;88179;-48
2022/02/21 00:23:28;;;;;;;;;;;;;;;;;;5023164;28;89296;-49
2022/02/21 00:25:53;;;;;;;;;;;;;;;;;;5023267;28;87279;-46
2022/02/21 00:28:21;;;;;;;;;;;;;;;;;;5023386;28;88468;-47
2022/02/21 00:30:47;;;;;;;;;;;;;;;;;;5022977;28;89813;-48
2022/02/21 00:33:12;;;;;;;;;;;;;;;;;;5026808;28;86398;-48
2022/02/21 00:35:38;;;;;;;;;;;;;;;;;;5022914;28;88825;-49
2022/02/21 00:38:04;;;;;;;;;;;;;;;;;;5023097;28;86888;-48
2022/02/21 00:40:30;;;;;;;;;;;;;;;;;;5022632;28;88476;-47
2022/02/21 00:42:56;;;;;;;;;;;;;;;;;;5022693;28;89429;-48
2022/02/21 00:45:22;;;;;;;;;;;;;;;;;;5023409;28;87314;-49
2022/02/21 00:47:48;;;;;;;;;;;;;;;;;;5023181;28;88377;-48
2022/02/21 00:50:14;;;;;;;;;;;;;;;;;;5022738;28;89421;-48
2022/02/21 00:52:40;;;;;;;;;;;;;;;;;;5023062;28;87118;-47
2022/02/21 00:55:05;;;;;;;;;;;;;;;;;;5025444;28;88789;-47
2022/02/21 00:57:31;;;;;;;;;;;;;;;;;;5023548;28;86150;-48
2022/02/21 00:59:57;;;;;;;;;;;;;;;;;;5023143;28;87832;-47
2022/02/21 01:02:23;;;;;;;;;;;;;;;;;;5022415;28;87966;-48
2022/02/21 01:04:49;;;;;;;;;;;;;;;;;;5022255;28;88028;-48
2022/02/21 01:07:15;;;;;;;;;;;;;;;;;;5022826;28;89665;-49
2022/02/21 01:09:41;;;;;;;;;;;;;;;;;;5022398;28;89185;-47
2022/02/21 01:12:07;;;;;;;;;;;;;;;;;;5022890;28;87188;-48
2022/02/21 01:14:33;;;;;;;;;;;;;;;;;;5023170;28;87244;-48
2022/02/21 01:16:58;;;;;;;;;;;;;;;;;;5025425;28;88342;-47
2022/02/21 01:19:24;;;;;;;;;;;;;;;;;;5022865;28;88620;-48
2022/02/21 01:21:50;;;;;;;;;;;;;;;;;;5026360;28;87910;-47
2022/02/21 01:24:16;;;;;;;;;;;;;;;;;;5025983;28;87185;-50
2022/02/21 01:26:42;;;;;;;;;;;;;;;;;;5026347;28;88575;-46
2022/02/21 01:29:09;;;;;;;;;;;;;;;;;;5025199;28;90226;-48
2022/02/21 01:31:35;;;;;;;;;;;;;;;;;;5026047;28;87207;-49
2022/02/21 01:34:01;;;;;;;;;;;;;;;;;;5026120;28;88390;-48
2022/02/21 01:36:27;;;;;;;;;;;;;;;;;;5025739;28;88463;-47
2022/02/21 01:38:53;;;;;;;;;;;;;;;;;;5028686;28;86884;-48
2022/02/21 01:41:19;;;;;;;;;;;;;;;;;;5025726;28;89654;-50
2022/02/21 01:43:47;;;;;;;;;;;;;;;;;;5025827;28;87111;-48
2022/02/21 01:46:12;;;;;;;;;;;;;;;;;;5026399;28;88698;-48
2022/02/21 01:48:38;;;;;;;;;;;;;;;;;;5025432;28;89199;-47
2022/02/21 01:51:04;;;;;;;;;;;;;;;;;;5025853;28;87199;-48
2022/02/21 01:53:30;;;;;;;;;;;;;;;;;;5024989;28;88375;-49
2022/02/21 01:55:56;;;;;;;;;;;;;;;;;;5025553;28;88979;-47
2022/02/21 01:58:22;;;;;;;;;;;;;;;;;;5028780;28;87212;-49
2022/02/21 02:00:48;;;;;;;;;;;;;;;;;;5025215;28;88512;-47
2022/02/21 02:03:16;;;;;;;;;;;;;;;;;;5025253;28;87138;-49
2022/02/21 02:05:42;;;;;;;;;;;;;;;;;;5025393;28;88706;-50
2022/02/21 02:08:08;;;;;;;;;;;;;;;;;;5024906;28;89632;-48
2022/02/21 02:10:33;;;;;;;;;;;;;;;;;;5025986;28;86351;-50
2022/02/21 02:12:59;;;;;;;;;;;;;;;;;;5025563;28;87783;-50
2022/02/21 02:15:25;;;;;;;;;;;;;;;;;;5025213;28;89247;-47
2022/02/21 02:17:51;;;;;;;;;;;;;;;;;;5024481;28;87866;-48
2022/02/21 02:20:18;;;;;;;;;;;;;;;;;;5028039;28;89821;-48
2022/02/21 02:22:44;;;;;;;;;;;;;;;;;;5025130;28;87054;-48
2022/02/21 02:25:10;;;;;;;;;;;;;;;;;;5025576;28;88388;-47
2022/02/21 02:27:36;;;;;;;;;;;;;;;;;;5025082;28;89342;-47
2022/02/21 02:30:02;;;;;;;;;;;;;;;;;;5025207;28;87181;-50
2022/02/21 02:32:28;;;;;;;;;;;;;;;;;;5024165;28;88345;-47
2022/02/21 02:34:53;;;;;;;;;;;;;;;;;;5025179;28;88083;-48
2022/02/21 02:37:19;;;;;;;;;;;;;;;;;;5024927;28;87060;-47
2022/02/21 02:39:45;;;;;;;;;;;;;;;;;;5025185;28;88477;-47
2022/02/21 02:42:11;;;;;;;;;;;;;;;;;;5026931;28;89604;-49
2022/02/21 02:44:37;;;;;;;;;;;;;;;;;;5025031;28;89651;-52
2022/02/21 02:47:03;;;;;;;;;;;;;;;;;;5024426;28;89571;-50
2022/02/21 02:49:29;;;;;;;;;;;;;;;;;;5024958;28;87186;-51
2022/02/21 02:51:55;;;;;;;;;;;;;;;;;;5024881;28;88349;-46
2022/02/21 02:54:20;;;;;;;;;;;;;;;;;;5024348;28;89452;-48
2022/02/21 02:56:47;;;;;;;;;;;;;;;;;;5024897;28;87129;-48
2022/02/21 02:59:13;;;;;;;;;;;;;;;;;;5025353;28;87416;-54
2022/02/21 03:01:39;;;;;;;;;;;;;;;;;;5023636;28;89588;-48
2022/02/21 03:04:06;;;;;;;;;;;;;;;;;;5027634;28;86923;-47
2022/02/21 03:06:31;;;;;;;;;;;;;;;;;;5023493;28;90122;-47
2022/02/21 03:08:57;;;;;;;;;;;;;;;;;;5024189;28;87250;-48
2022/02/21 03:11:23;;;;;;;;;;;;;;;;;;5024535;28;88292;-47
2022/02/21 03:13:49;;;;;;;;;;;;;;;;;;5024133;28;89089;-47
2022/02/21 03:16:15;;;;;;;;;;;;;;;;;;5024633;28;87238;-50
2022/02/21 03:18:41;;;;;;;;;;;;;;;;;;5024446;28;88229;-48
2022/02/21 03:21:07;;;;;;;;;;;;;;;;;;5024082;28;89485;-52
2022/02/21 03:23:33;;;;;;;;;;;;;;;;;;5024719;28;86414;-48
2022/02/21 03:25:59;;;;;;;;;;;;;;;;;;5026959;28;87663;-50
2022/02/21 03:28:25;;;;;;;;;;;;;;;;;;5024208;28;87107;-50
2022/02/21 03:30:51;;;;;;;;;;;;;;;;;;5023562;28;88381;-47
2022/02/21 03:33:17;;;;;;;;;;;;;;;;;;5023908;28;89077;-48
2022/02/21 03:35:42;;;;;;;;;;;;;;;;;;5024153;28;87132;-47
2022/02/21 03:38:08;;;;;;;;;;;;;;;;;;5023965;28;88233;-48
2022/02/21 03:40:34;;;;;;;;;;;;;;;;;;5023828;28;89358;-48
2022/02/21 03:43:00;;;;;;;;;;;;;;;;;;5023843;28;87171;-46
2022/02/21 03:45:26;;;;;;;;;;;;;;;;;;5024208;28;88241;-46
2022/02/21 03:47:53;;;;;;;;;;;;;;;;;;5027014;28;88511;-49
2022/02/21 03:50:19;;;;;;;;;;;;;;;;;;5024235;28;87903;-48
2022/02/21 03:52:44;;;;;;;;;;;;;;;;;;5023553;28;88438;-46
2022/02/21 03:55:11;;;;;;;;;;;;;;;;;;5023230;28;88088;-48
2022/02/21 03:57:37;;;;;;;;;;;;;;;;;;5023792;28;89377;-46
2022/02/21 04:00:02;;;;;;;;;;;;;;;;;;5023379;28;89390;-48
2022/02/21 04:02:28;;;;;;;;;;;;;;;;;;5023295;28;87264;-47
2022/02/21 04:04:54;;;;;;;;;;;;;;;;;;5023716;28;88219;-47
2022/02/21 04:07:20;;;;;;;;;;;;;;;;;;5026147;28;89487;-50
2022/02/21 04:09:46;;;;;;;;;;;;;;;;;;5023690;28;88339;-47
2022/02/21 04:12:12;;;;;;;;;;;;;;;;;;5023854;28;88442;-47
2022/02/21 04:14:38;;;;;;;;;;;;;;;;;;5023605;28;87176;-47
2022/02/21 04:17:04;;;;;;;;;;;;;;;;;;5023626;28;88413;-47
2022/02/21 04:19:30;;;;;;;;;;;;;;;;;;5022353;28;90410;-49
2022/02/21 04:21:58;;;;;;;;;;;;;;;;;;5023488;28;87019;-47
2022/02/21 04:24:24;;;;;;;;;;;;;;;;;;5023592;28;88920;-47
2022/02/21 04:26:50;;;;;;;;;;;;;;;;;;5023332;28;89273;-49
2022/02/21 04:29:16;;;;;;;;;;;;;;;;;;5026529;28;87129;-47
2022/02/21 04:31:42;;;;;;;;;;;;;;;;;;5022962;28;89431;-47
2022/02/21 04:34:08;;;;;;;;;;;;;;;;;;5023266;28;87400;-47
2022/02/21 04:36:34;;;;;;;;;;;;;;;;;;5023792;28;88471;-48
2022/02/21 04:39:00;;;;;;;;;;;;;;;;;;5022803;28;89159;-50
2022/02/21 04:41:26;;;;;;;;;;;;;;;;;;5023272;28;87276;-47
2022/02/21 04:43:53;;;;;;;;;;;;;;;;;;5022654;28;88590;-48
2022/02/21 04:46:19;;;;;;;;;;;;;;;;;;5022887;28;89398;-46
2022/02/21 04:48:45;;;;;;;;;;;;;;;;;;5023172;28;87197;-50
2022/02/21 04:51:11;;;;;;;;;;;;;;;;;;5025551;28;88887;-47
2022/02/21 04:53:37;;;;;;;;;;;;;;;;;;5023088;28;87214;-47
2022/02/21 04:56:03;;;;;;;;;;;;;;;;;;5025624;28;88250;-50
2022/02/21 04:58:29;;;;;;;;;;;;;;;;;;5026231;28;89256;-47
2022/02/21 05:00:55;;;;;;;;;;;;;;;;;;5027232;28;86445;-49
2022/02/21 05:03:20;;;;;;;;;;;;;;;;;;5025039;28;89437;-51
2022/02/21 05:05:46;;;;;;;;;;;;;;;;;;5026237;28;89314;-47
2022/02/21 05:08:12;;;;;;;;;;;;;;;;;;5025561;28;88083;-49
2022/02/21 05:10:38;;;;;;;;;;;;;;;;;;5026589;28;89236;-47
2022/02/21 05:13:04;;;;;;;;;;;;;;;;;;5028830;28;89342;-49
2022/02/21 05:15:30;;;;;;;;;;;;;;;;;;5026545;28;87443;-49
2022/02/21 05:17:56;;;;;;;;;;;;;;;;;;5025942;28;89402;-48
2022/02/21 05:20:22;;;;;;;;;;;;;;;;;;5026373;28;87178;-47
2022/02/21 05:22:47;;;;;;;;;;;;;;;;;;5026105;28;88288;-47
2022/02/21 05:25:13;;;;;;;;;;;;;;;;;;5026573;28;88556;-50
2022/02/21 05:27:39;;;;;;;;;;;;;;;;;;5026114;28;87117;-49
2022/02/21 05:30:05;;;;;;;;;;;;;;;;;;5026223;28;88689;-48
2022/02/21 05:32:31;;;;;;;;;;;;;;;;;;5025043;28;90919;-46
2022/02/21 05:34:57;;;;;;;;;;;;;;;;;;5029035;28;87173;-49
2022/02/21 05:37:23;;;;;;;;;;;;;;;;;;5025378;28;89297;-47
2022/02/21 05:39:49;;;;;;;;;;;;;;;;;;5025758;28;87280;-48
2022/02/21 05:42:15;;;;;;;;;;;;;;;;;;5025858;28;88352;-48
2022/02/21 05:44:40;;;;;;;;;;;;;;;;;;5025660;28;89459;-48
2022/02/21 05:47:06;;;;;;;;;;;;;;;;;;5025666;28;86968;-47
2022/02/21 05:49:32;;;;;;;;;;;;;;;;;;5026423;28;88448;-47
2022/02/21 05:51:58;;;;;;;;;;;;;;;;;;5025255;28;89323;-48
2022/02/21 05:54:24;;;;;;;;;;;;;;;;;;5025700;28;87330;-50
2022/02/21 05:56:50;;;;;;;;;;;;;;;;;;5027617;28;88286;-48
2022/02/21 05:59:16;;;;;;;;;;;;;;;;;;5025783;28;87308;-46
2022/02/21 06:01:42;;;;;;;;;;;;;;;;;;5025502;28;88139;-49
2022/02/21 06:04:08;;;;;;;;;;;;;;;;;;5025327;28;89432;-49
2022/02/21 06:06:34;;;;;;;;;;;;;;;;;;5024411;28;87125;-46
2022/02/21 06:09:00;;;;;;;;;;;;;;;;;;5025713;28;88335;-47
2022/02/21 06:11:26;;;;;;;;;;;;;;;;;;5025210;28;89234;-47
2022/02/21 06:13:52;;;;;;;;;;;;;;;;;;5025754;28;87376;-48
2022/02/21 06:16:18;;;;;;;;;;;;;;;;;;5027917;28;87385;-47
2022/02/21 06:18:44;;;;;;;;;;;;;;;;;;5025313;28;87057;-47
2022/02/21 06:21:10;;;;;;;;;;;;;;;;;;5024416;28;88332;-48
2022/02/21 06:23:35;;;;;;;;;;;;;;;;;;5024895;28;89145;-47
2022/02/21 06:26:01;;;;;;;;;;;;;;;;;;5025112;28;87018;-49
2022/02/21 06:28:28;;;;;;;;;;;;;;;;;;5025122;28;88248;-46
2022/02/21 06:30:54;;;;;;;;;;;;;;;;;;5024694;28;89759;-47
2022/02/21 06:33:20;;;;;;;;;;;;;;;;;;5025067;28;86898;-46
2022/02/21 06:35:46;;;;;;;;;;;;;;;;;;5025096;28;88839;-46
2022/02/21 06:38:12;;;;;;;;;;;;;;;;;;5028098;28;88583;-46
2022/02/21 06:40:38;;;;;;;;;;;;;;;;;;5025065;28;87025;-47
2022/02/21 06:43:04;;;;;;;;;;;;;;;;;;5024984;28;87988;-46
2022/02/21 06:45:30;;;;;;;;;;;;;;;;;;5024315;28;87957;-46
2022/02/21 06:47:56;;;;;;;;;;;;;;;;;;5025152;28;89255;-46
2022/02/21 06:50:21;;;;;;;;;;;;;;;;;;5024531;28;89359;-47
2022/02/21 06:52:47;;;;;;;;;;;;;;;;;;5024976;28;87163;-46
2022/02/21 06:55:13;;;;;;;;;;;;;;;;;;5024716;28;88680;-46
2022/02/21 06:57:39;;;;;;;;;;;;;;;;;;5024509;28;89355;-46
2022/02/21 07:00:05;;;;;;;;;;;;;;;;;;5027862;28;87207;-46
2022/02/21 07:02:31;;;;;;;;;;;;;;;;;;5024130;28;88030;-47
2022/02/21 07:04:57;;;;;;;;;;;;;;;;;;5024537;28;87206;-47
2022/02/21 07:07:23;;;;;;;;;;;;;;;;;;5024652;28;88280;-46
2022/02/21 07:09:49;;;;;;;;;;;;;;;;;;5023830;28;90627;-46
2022/02/21 07:12:15;;;;;;;;;;;;;;;;;;5024647;28;87127;-46
2022/02/21 07:14:41;;;;;;;;;;;;;;;;;;5024454;28;88219;-46
2022/02/21 07:17:07;;;;;;;;;;;;;;;;;;5023869;28;89612;-46
2022/02/21 07:19:33;;;;;;;;;;;;;;;;;;5024234;28;87159;-47
2022/02/21 07:21:59;;;;;;;;;;;;;;;;;;5027075;28;88528;-46
2022/02/21 07:24:25;;;;;;;;;;;;;;;;;;5024306;28;87107;-46
2022/02/21 07:26:51;;;;;;;;;;;;;;;;;;5024899;28;88329;-47
2022/02/21 07:29:17;;;;;;;;;;;;;;;;;;5023929;28;89202;-46
2022/02/21 07:31:42;;;;;;;;;;;;;;;;;;5024201;28;87204;-47
2022/02/21 07:34:08;;;;;;;;;;;;;;;;;;5023643;28;88616;-46
2022/02/21 07:36:34;;;;;;;;;;;;;;;;;;5023605;28;88489;-46
2022/02/21 07:39:01;;;;;;;;;;;;;;;;;;5024028;28;87277;-46
2022/02/21 07:41:27;;;;;;;;;;;;;;;;;;5024215;28;87514;-46
2022/02/21 07:43:53;;;;;;;;;;;;;;;;;;5026761;28;89455;-46
2022/02/21 07:46:19;;;;;;;;;;;;;;;;;;5023976;28;88029;-46
2022/02/21 07:48:45;;;;;;;;;;;;;;;;;;5023520;28;89285;-46
2022/02/21 07:51:11;;;;;;;;;;;;;;;;;;5024381;28;86461;-47
2022/02/21 07:53:37;;;;;;;;;;;;;;;;;;5023904;28;87478;-46
2022/02/21 07:56:03;;;;;;;;;;;;;;;;;;5023664;28;89472;-46
2022/02/21 07:58:29;;;;;;;;;;;;;;;;;;5023322;28;88177;-46
2022/02/21 08:00:54;;;;;;;;;;;;;;;;;;5023619;28;89688;-46
2022/02/21 08:03:20;;;;;;;;;;;;;;;;;;5023219;28;88323;-47
2022/02/21 08:05:46;;;;;;;;;;;;;;;;;;5026687;28;86999;-46
2022/02/21 08:08:12;;;;;;;;;;;;;;;;;;5023359;28;89238;-47
2022/02/21 08:10:39;;;;;;;;;;;;;;;;;;5023935;28;87111;-47
2022/02/21 08:13:05;;;;;;;;;;;;;;;;;;5023664;28;87960;-47
2022/02/21 08:15:31;;;;;;;;;;;;;;;;;;5023794;28;89278;-47
2022/02/21 08:17:57;;;;;;;;;;;;;;;;;;5023291;28;87287;-46
2022/02/21 08:20:23;;;;;;;;;;;;;;;;;;5023318;28;88484;-46
2022/02/21 08:22:49;;;;;;;;;;;;;;;;;;5022556;28;89359;-46
2022/02/21 08:25:15;;;;;;;;;;;;;;;;;;5026486;28;87247;-47
2022/02/21 08:27:41;;;;;;;;;;;;;;;;;;5023007;28;89189;-47
2022/02/21 08:30:07;;;;;;;;;;;;;;;;;;5022277;28;87301;-46
2022/02/21 08:32:33;;;;;;;;;;;;;;;;;;5023276;28;88305;-46
2022/02/21 08:34:59;;;;;;;;;;;;;;;;;;5022906;28;88522;-46
2022/02/21 08:37:25;;;;;;;;;;;;;;;;;;5023462;28;87222;-46
2022/02/21 08:39:50;;;;;;;;;;;;;;;;;;5023632;28;88328;-46
2022/02/21 08:42:16;;;;;;;;;;;;;;;;;;5022928;28;89339;-47
2022/02/21 08:44:42;;;;;;;;;;;;;;;;;;5023084;28;87112;-46
2022/02/21 08:47:08;;;;;;;;;;;;;;;;;;5025276;28;88372;-46
2022/02/21 08:49:34;;;;;;;;;;;;;;;;;;5022866;28;87236;-47
2022/02/21 08:52:00;;;;;;;;;;;;;;;;;;5023061;28;88316;-46
2022/02/21 08:54:26;;;;;;;;;;;;;;;;;;5022796;28;89391;-47
2022/02/21 08:56:52;;;;;;;;;;;;;;;;;;5022922;28;87213;-46
2022/02/21 08:59:18;;;;;;;;;;;;;;;;;;5023269;28;87559;-46
2022/02/21 09:01:44;;;;;;;;;;;;;;;;;;5022259;28;89557;-47
2022/02/21 09:04:10;;;;;;;;;;;;;;;;;;5023440;28;86132;-46
2022/02/21 09:06:36;;;;;;;;;;;;;;;;;;5022954;28;87619;-46
2022/02/21 09:09:02;;;;;;;;;;;;;;;;;;5025617;28;88127;-47
2022/02/21 09:11:28;;;;;;;;;;;;;;;;;;5022280;28;88405;-46
2022/02/21 09:13:53;;;;;;;;;;;;;;;;;;5022507;28;89953;-46
2022/02/21 09:16:19;;;;;;;;;;;;;;;;;;5022673;28;87264;-46
2022/02/21 09:18:45;;;;;;;;;;;;;;;;;;5022622;28;88645;-46
2022/02/21 09:21:11;;;;;;;;;;;;;;;;;;5022309;28;89816;-46
2022/02/21 09:23:37;;;;;;;;;;;;;;;;;;5022832;28;86919;-46
2022/02/21 09:26:03;;;;;;;;;;;;;;;;;;5022642;28;88464;-47
2022/02/21 09:28:29;;;;;;;;;;;;;;;;;;5022900;28;89182;-47
2022/02/21 09:30:55;;;;;;;;;;;;;;;;;;5025592;28;87228;-46
2022/02/21 09:33:21;;;;;;;;;;;;;;;;;;5022206;28;89577;-46
2022/02/21 09:35:47;;;;;;;;;;;;;;;;;;5022002;28;87936;-46
2022/02/21 09:38:13;;;;;;;;;;;;;;;;;;5022445;28;89144;-46
2022/02/21 09:40:39;;;;;;;;;;;;;;;;;;5023000;28;89527;-46
2022/02/21 09:43:05;;;;;;;;;;;;;;;;;;5025899;28;87182;-47
2022/02/21 09:45:31;;;;;;;;;;;;;;;;;;5026108;28;88422;-46
2022/02/21 09:47:57;;;;;;;;;;;;;;;;;;5025491;28;89366;-46
2022/02/21 09:50:22;;;;;;;;;;;;;;;;;;5025513;28;87214;-47
2022/02/21 09:52:48;;;;;;;;;;;;;;;;;;5028710;28;88584;-46
2022/02/21 09:55:14;;;;;;;;;;;;;;;;;;5025791;28;86795;-46
2022/02/21 09:57:41;;;;;;;;;;;;;;;;;;5025777;28;88382;-46
2022/02/21 10:00:08;;;;;;;;;;;;;;;;;;5024672;28;89687;-46
2022/02/21 10:02:34;;;;;;;;;;;;;;;;;;5025031;28;87168;-47
2022/02/21 10:05:00;;;;;;;;;;;;;;;;;;5025383;28;88537;-47
2022/02/21 10:07:25;;;;;;;;;;;;;;;;;;5025183;28;88244;-46
2022/02/21 10:09:51;;;;;;;;;;;;;;;;;;5025627;28;87255;-46
2022/02/21 10:12:17;;;;;;;;;;;;;;;;;;5028176;28;88559;-47
2022/02/21 10:14:43;;;;;;;;;;;;;;;;;;5025413;28;87268;-46
2022/02/21 10:17:09;;;;;;;;;;;;;;;;;;5025842;28;88468;-46
2022/02/21 10:19:39;;;;;;;;;;;;;;;;;;5024792;28;89666;-47
2022/02/21 10:22:06;;;;;;;;;;;;;;;;;;5025277;28;87224;-47
2022/02/21 10:24:32;;;;;;;;;;;;;;;;;;5024807;28;87997;-47
2022/02/21 10:26:58;;;;;;;;;;;;;;;;;;5025301;28;88153;-46
2022/02/21 10:29:24;;;;;;;;;;;;;;;;;;5025264;28;87138;-47
2022/02/21 10:31:50;;;;;;;;;;;;;;;;;;5025184;28;88253;-46
2022/02/21 10:34:16;;;;;;;;;;;;;;;;;;5027480;28;89862;-46
2022/02/21 10:36:42;;;;;;;;;;;;;;;;;;5025180;28;88587;-46
2022/02/21 10:39:08;;;;;;;;;;;;;;;;;;5024662;28;89202;-46
2022/02/21 10:41:33;;;;;;;;;;;;;;;;;;5025570;28;86324;-46
2022/02/21 10:43:59;;;;;;;;;;;;;;;;;;5025143;28;87744;-47
2022/02/21 10:46:25;;;;;;;;;;;;;;;;;;5024732;28;89511;-47
2022/02/21 10:48:51;;;;;;;;;;;;;;;;;;5024241;28;88190;-47
2022/02/21 10:51:17;;;;;;;;;;;;;;;;;;5024963;28;89217;-47
2022/02/21 10:53:44;;;;;;;;;;;;;;;;;;5023714;28;89774;-48
2022/02/21 10:56:11;;;;;;;;;;;;;;;;;;5027706;28;87198;-47
2022/02/21 10:58:37;;;;;;;;;;;;;;;;;;5024461;28;89307;-49
2022/02/21 11:01:05;;;;;;;;;;;;;;;;;;5024474;28;87217;-47
2022/02/21 11:03:31;;;;;;;;;;;;;;;;;;5024607;28;88803;-47
2022/02/21 11:05:59;;;;;;;;;;;;;;;;;;5024645;28;88752;-46
2022/02/21 11:08:25;;;;;;;;;;;;;;;;;;5024618;28;87285;-46
2022/02/21 11:10:51;;;;;;;;;;;;;;;;;;5024712;28;88412;-46
2022/02/21 11:13:17;;;;;;;;;;;;;;;;;;5023387;28;90514;-47
2022/02/21 11:15:43;;;;;;;;;;;;;;;;;;5024433;28;87239;-46
2022/02/21 11:18:17;;;;;;;;;;;;;;;;;;5026989;28;87221;-47
2022/02/21 11:20:43;;;;;;;;;;;;;;;;;;5024462;28;87141;-47
2022/02/21 11:23:09;;;;;;;;;;;;;;;;;;5024454;28;88362;-46
2022/02/21 11:25:35;;;;;;;;;;;;;;;;;;5023915;28;89573;-47
2022/02/21 11:28:01;;;;;;;;;;;;;;;;;;5024313;28;87157;-47
2022/02/21 11:30:27;;;;;;;;;;;;;;;;;;5024716;28;88703;-47
2022/02/21 11:32:53;;;;;;;;;;;;;;;;;;5023934;28;88303;-47
2022/02/21 11:35:20;;;;;;;;;;;;;;;;;;5024324;28;87239;-46
2022/02/21 11:37:46;;;;;;;;;;;;;;;;;;5023461;28;88833;-47
2022/02/21 11:40:12;;;;;;;;;;;;;;;;;;5026747;28;89303;-46
2022/02/21 11:42:38;;;;;;;;;;;;;;;;;;5024220;28;87280;-47
2022/02/21 11:45:04;;;;;;;;;;;;;;;;;;5023663;28;89281;-47
2022/02/21 11:47:30;;;;;;;;;;;;;;;;;;5024007;28;87181;-46
2022/02/21 11:49:56;;;;;;;;;;;;;;;;;;5024109;28;88557;-46
2022/02/21 11:52:22;;;;;;;;;;;;;;;;;;5023476;28;89436;-46
2022/02/21 11:54:48;;;;;;;;;;;;;;;;;;5024576;28;86521;-46
2022/02/21 11:57:14;;;;;;;;;;;;;;;;;;5024046;28;88098;-47
2022/02/21 11:59:40;;;;;;;;;;;;;;;;;;5023379;28;89200;-47
2022/02/21 12:02:06;;;;;;;;;;;;;;;;;;5025186;28;88119;-47
2022/02/21 12:04:31;;;;;;;;;;;;;;;;;;5023836;28;89605;-47
2022/02/21 12:06:57;;;;;;;;;;;;;;;;;;5023871;28;87157;-46
2022/02/21 12:09:23;;;;;;;;;;;;;;;;;;5023958;28;88579;-47
2022/02/21 12:11:49;;;;;;;;;;;;;;;;;;5023408;28;88439;-46
2022/02/21 12:14:15;;;;;;;;;;;;;;;;;;5023483;28;87172;-46
2022/02/21 12:16:41;;;;;;;;;;;;;;;;;;5023693;28;88828;-47
2022/02/21 12:19:07;;;;;;;;;;;;;;;;;;5023771;28;88048;-46
2022/02/21 12:21:34;;;;;;;;;;;;;;;;;;5026463;28;87069;-46
2022/02/21 12:24:00;;;;;;;;;;;;;;;;;;5023143;28;89512;-46
2022/02/21 12:26:26;;;;;;;;;;;;;;;;;;5022958;28;88242;-46
2022/02/21 12:28:52;;;;;;;;;;;;;;;;;;5023498;28;88415;-46
2022/02/21 12:31:18;;;;;;;;;;;;;;;;;;5022763;28;89695;-47
2022/02/21 12:33:44;;;;;;;;;;;;;;;;;;5023279;28;87107;-47
2022/02/21 12:36:10;;;;;;;;;;;;;;;;;;5023411;28;88317;-47
2022/02/21 12:38:35;;;;;;;;;;;;;;;;;;5023064;28;89409;-46
2022/02/21 12:41:05;;;;;;;;;;;;;;;;;;5023539;28;87163;-47
2022/02/21 12:43:31;;;;;;;;;;;;;;;;;;5026429;28;87810;-46
2022/02/21 12:45:56;;;;;;;;;;;;;;;;;;5023142;28;87123;-46
2022/02/21 12:48:22;;;;;;;;;;;;;;;;;;5023436;28;88050;-46
2022/02/21 12:50:48;;;;;;;;;;;;;;;;;;5022160;28;90779;-47
2022/02/21 12:53:14;;;;;;;;;;;;;;;;;;5023000;28;87085;-46
2022/02/21 12:55:40;;;;;;;;;;;;;;;;;;5023123;28;88124;-46
2022/02/21 12:58:06;;;;;;;;;;;;;;;;;;5022482;28;89723;-46
2022/02/21 13:00:32;;;;;;;;;;;;;;;;;;5022762;28;87139;-45
2022/02/21 13:02:58;;;;;;;;;;;;;;;;;;5022698;28;87983;-47
2022/02/21 13:05:24;;;;;;;;;;;;;;;;;;5025489;28;89235;-46
2022/02/21 13:07:50;;;;;;;;;;;;;;;;;;5023505;28;88388;-47
2022/02/21 13:10:15;;;;;;;;;;;;;;;;;;5029929;28;88984;-46
2022/02/21 13:12:42;;;;;;;;;;;;;;;;;;5043054;27;87098;-44
2022/02/21 13:15:08;;;;;;;;;;;;;;;;;;5042406;27;88765;-45
2022/02/21 13:17:35;;;;;;;;;;;;;;;;;;5046032;27;89321;-44
2022/02/21 13:20:02;;;;;;;;;;;;;;;;;;5046268;27;88317;-48
2022/02/21 13:22:28;;;;;;;;;;;;;;;;;;5046463;27;88638;-45
2022/02/21 13:24:54;;;;;;;;;;;;;;;;;;5046208;27;88238;-46
2022/02/21 13:27:20;;;;;;;;;;;;;;;;;;5049202;27;87232;-46
2022/02/21 13:29:46;;;;;;;;;;;;;;;;;;5045838;28;88620;-45
2022/02/21 13:32:12;;;;;;;;;;;;;;;;;;5046841;27;86498;-46
2022/02/21 13:34:38;;;;;;;;;;;;;;;;;;5046300;27;88405;-48
2022/02/21 13:37:04;;;;;;;;;;;;;;;;;;5045922;27;89778;-45
2022/02/21 13:39:30;;;;;;;;;;;;;;;;;;5045453;27;88139;-46
2022/02/21 13:41:57;;;;;;;;;;;;;;;;;;5046087;28;89358;-43
2022/02/21 13:44:23;;;;;;;;;;;;;;;;;;5045710;27;89389;-43
2022/02/21 13:46:49;;;;;;;;;;;;;;;;;;5046048;27;87106;-41
2022/02/21 13:49:15;;;;;;;;;;;;;;;;;;5048636;27;88463;-42
2022/02/21 13:51:40;;;;;;;;;;;;;;;;;;5045962;27;87111;-43
2022/02/21 13:54:06;;;;;;;;;;;;;;;;;;5045870;27;88413;-40
2022/02/21 13:56:32;;;;;;;;;;;;;;;;;;5046027;27;88976;-45
2022/02/21 13:59:00;;;;;;;;;;;;;;;;;;5045785;27;87201;-45
2022/02/21 14:01:29;;;;;;;;;;;;;;;;;;5045209;27;87692;-43
2022/02/21 14:03:56;;;;;;;;;;;;;;;;;;5045202;27;89055;-43
2022/02/21 14:06:22;;;;;;;;;;;;;;;;;;5045865;27;87139;-43
2022/02/21 14:08:48;;;;;;;;;;;;;;;;;;5045691;27;87395;-43
2022/02/21 14:11:13;;;;;;;;;;;;;;;;;;5048095;27;89117;-43
2022/02/21 14:13:39;;;;;;;;;;;;;;;;;;5045285;27;88523;-43
2022/02/21 14:16:05;;;;;;;;;;;;;;;;;;5045216;27;89491;-43
2022/02/21 14:18:32;;;;;;;;;;;;;;;;;;5044192;28;87074;-43
2022/02/21 14:20:57;;;;;;;;;;;;;;;;;;5045870;27;88316;-42
2022/02/21 14:23:23;;;;;;;;;;;;;;;;;;5045072;27;89614;-43
2022/02/21 14:25:49;;;;;;;;;;;;;;;;;;5045488;27;87211;-43
2022/02/21 14:28:15;;;;;;;;;;;;;;;;;;5043480;27;88295;-43
2022/02/21 14:30:41;;;;;;;;;;;;;;;;;;5047975;27;89242;-43
2022/02/21 14:33:08;;;;;;;;;;;;;;;;;;5045471;27;88813;-43
2022/02/21 14:35:37;;;;;;;;;;;;;;;;;;5045016;27;89206;-44
2022/02/21 14:40:41;;;;;;;;;;;11.30;67.50;;;;;;5086977;27;80007;-45
2022/02/21 14:43:07;;;;;;;;;;;11.20;68.60;;;;;;5085352;27;80951;-45
2022/02/21 14:45:33;;;;;;;;;;;11.10;68.70;;;;;;5085600;27;81990;-44
2022/02/21 14:47:58;;;;;;;;;;;11.20;68.40;;;;;;5085354;27;82530;-45
2022/02/21 14:50:24;;;;;;;;;;;11.20;68.50;;;;;;5085587;27;80456;-45
2022/02/21 14:52:49;;;;;;;;;;;11.10;68.50;;;;;;5085537;27;81342;-45
2022/02/21 14:55:15;;;;;;;;;;;11.20;68.80;;;;;;5085239;27;82604;-44
2022/02/21 14:57:41;;;;;;;;;;;11.10;69.00;;;;;;5085379;27;80383;-45
2022/02/21 15:00:08;;;;;;;;;;;11.20;68.90;;;;;;5087853;27;82185;-45
2022/02/21 15:02:34;;;;;;;;;;;11.20;68.80;;;;;;5085297;27;80205;-45
2022/02/21 15:04:59;;;;;;;;;;;11.20;68.90;;;;;;5085352;27;82029;-44
2022/02/21 15:07:25;;;;;;;;;;;11.20;68.90;;;;;;5085235;27;82832;-44
2022/02/21 15:09:50;;;;;;;;;;;11.10;68.90;;;;;;5085165;27;80383;-45
2022/02/21 15:12:16;;;;;;;;;;;11.10;69.00;;;;;;5084779;27;82165;-44
2022/02/21 15:14:41;;;;;;;;;;;11.20;69.20;;;;;;5084988;27;82836;-45
2022/02/21 15:17:07;;;;;;;;;;;11.10;69.20;;;;;;5085225;27;79941;-45
2022/02/21 15:19:33;;;;;;;;;;;11.10;69.20;;;;;;5085364;27;81395;-45
2022/02/21 15:21:58;;;;;;;;;;;11.20;69.30;;;;;;5088035;27;80350;-44
2022/02/21 15:24:24;;;;;;;;;;;11.10;69.20;;;;;;5085012;27;82237;-45
2022/02/21 15:26:49;;;;;;;;;;;11.10;69.40;;;;;;5084762;27;81882;-44
2022/02/21 15:29:15;;;;;;;;;;;11.10;69.40;;;;;;5084891;27;80344;-45
2022/02/21 15:31:40;;;;;;;;;;;11.10;69.50;;;;;;5084777;27;82504;-45
2022/02/21 15:34:06;;;;;;;;;;;11.10;69.50;;;;;;5084845;27;82035;-44
2022/02/21 15:36:32;;;;;;;;;;;11.10;69.60;;;;;;5084936;27;80294;-45
2022/02/21 15:38:58;;;;;;;;;;;11.10;69.60;;;;;;5084135;27;82466;-45
2022/02/21 15:41:23;;;;;;;;;;;11.10;69.70;;;;;;5084478;27;83149;-44
2022/02/21 15:43:49;;;;;;;;;;;11.10;69.70;;;;;;5087649;27;80350;-44
2022/02/21 15:46:15;;;;;;;;;;;11.10;69.70;;;;;;5084515;27;82855;-45
2022/02/21 15:48:40;;;;;;;;;;;11.10;69.70;;;;;;5084830;27;80380;-45
2022/02/21 15:51:06;;;;;;;;;;;11.10;69.80;;;;;;5076466;27;80843;-45
2022/02/21 15:53:34;;;;;;;;;;;11.10;69.70;;;;;;5070692;27;83132;-48
2022/02/21 15:55:59;;;;;;;;;;;11.10;69.80;;;;;;5070679;27;80242;-45
2022/02/21 15:58:25;;;;;;;;;;;11.10;69.80;;;;;;5070788;27;82144;-45
2022/02/21 16:00:50;;;;;;;;;;;11.10;69.70;;;;;;5070547;27;82838;-45
2022/02/21 16:03:16;;;;;;;;;;;11.10;69.70;;;;;;5070684;27;80427;-44
2022/02/21 16:05:41;;;;;;;;;;;11.10;69.80;;;;;;5073284;27;82816;-45
2022/02/21 16:08:07;;;;;;;;;;;11.10;69.70;;;;;;5070658;27;79948;-44
2022/02/21 16:10:33;;;;;;;;;;;11.10;69.70;;;;;;5070638;27;82247;-45
2022/02/21 16:12:58;;;;;;;;;;;11.10;69.70;;;;;;5070234;27;82668;-45
2022/02/21 16:15:24;;;;;;;;;;;11.10;69.80;;;;;;5070567;27;80437;-45
2022/02/21 16:17:49;;;;;;;;;;;11.10;69.80;;;;;;5070484;27;81665;-45
2022/02/21 16:20:15;;;;;;;;;;;11.10;69.80;;;;;;5070383;27;83376;-45